Time;durP1;ratioP1;P1;durP2;ratioP2;P2;SDS_P1;SDS_P2;PMS_P1;PMS_P2;Temp;Humidity;BMP_temperature;BMP_pressure;BME280_temperature;BME280_humidity;BME280_pressure;Samples;Min_cycle;Max_cycle;Signal;HPM_P1;HPM_P2
2022/10/15 00:00:01;;;;;;;0.80;0.67;;;;;;;14.02;100.00;97408.53;5015958;28;20313;-71
2022/10/15 00:02:28;;;;;;;0.70;0.70;;;;;;;14.03;100.00;97409.34;5016073;28;20562;-71
2022/10/15 00:04:54;;;;;;;1.43;0.80;;;;;;;14.05;100.00;97401.84;5015991;28;20662;-71
2022/10/15 00:07:20;;;;;;;0.70;0.70;;;;;;;14.07;100.00;97399.75;5016278;28;20207;-71
2022/10/15 00:09:47;;;;;;;0.70;0.70;;;;;;;14.11;100.00;97401.63;5015923;28;20217;-71
2022/10/15 00:12:13;;;;;;;0.67;0.67;;;;;;;14.09;100.00;97397.63;5015872;28;20670;-71
2022/10/15 00:14:39;;;;;;;2.70;0.57;;;;;;;14.11;100.00;97398.19;5015699;28;20210;-71
2022/10/15 00:17:06;;;;;;;1.00;0.70;;;;;;;14.14;100.00;97400.31;5015763;28;20225;-71
2022/10/15 00:19:32;;;;;;;1.10;0.50;;;;;;;14.12;100.00;97391.75;5015908;28;20237;-72
2022/10/15 00:21:59;;;;;;;3.43;0.70;;;;;;;14.16;100.00;97396.31;5016012;28;20206;-71
2022/10/15 00:24:25;;;;;;;1.40;1.00;;;;;;;14.11;100.00;97401.63;5015948;28;20203;-71
2022/10/15 00:26:51;;;;;;;0.50;0.50;;;;;;;14.14;100.00;97395.78;5015904;28;20207;-71
2022/10/15 00:29:18;;;;;;;0.70;0.67;;;;;;;14.18;100.00;97398.75;5015871;28;20202;-71
2022/10/15 00:31:44;;;;;;;1.70;0.60;;;;;;;14.17;100.00;97399.81;5015466;28;20242;-71
2022/10/15 00:34:11;;;;;;;0.70;0.70;;;;;;;14.16;100.00;97400.88;5014917;28;20749;-71
2022/10/15 00:36:37;;;;;;;0.67;0.50;;;;;;;14.14;100.00;97394.97;5015417;28;20217;-71
2022/10/15 00:39:06;;;;;;;0.73;0.60;;;;;;;14.17;100.00;97394.47;5015261;28;20234;-71
2022/10/15 00:41:40;;;;;;;1.57;0.50;;;;;;;14.18;100.00;97393.41;5015218;28;20238;-72
2022/10/15 00:44:22;;;;;;;3.50;0.57;;;;;;;14.18;100.00;97394.22;5015597;28;20565;-71
2022/10/15 00:46:51;;;;;;;0.77;0.50;;;;;;;14.16;100.00;97396.31;5015512;28;20670;-71
2022/10/15 00:49:28;;;;;;;0.83;0.60;;;;;;;14.19;100.00;97381.63;5015535;28;20214;-71
2022/10/15 00:52:13;;;;;;;3.40;0.60;;;;;;;14.18;100.00;97380.03;5015398;28;20538;-71
2022/10/15 00:55:04;;;;;;;1.10;0.50;;;;;;;14.21;100.00;97380.38;5015468;28;20197;-71
2022/10/15 00:57:50;;;;;;;1.73;0.57;;;;;;;14.19;100.00;97382.44;5015273;28;20218;-71
2022/10/15 01:00:17;;;;;;;0.50;0.50;;;;;;;14.26;100.00;97376.91;5013981;28;20222;-71
2022/10/15 01:02:46;;;;;;;1.40;0.50;;;;;;;14.26;100.00;97371.56;5014923;28;20217;-71
2022/10/15 01:05:15;;;;;;;2.30;0.60;;;;;;;14.24;100.00;97377.16;5015219;28;20206;-71
2022/10/15 01:07:42;;;;;;;2.03;0.47;;;;;;;14.22;100.00;97371.28;5015185;28;20210;-71
2022/10/15 01:10:10;;;;;;;2.80;0.40;;;;;;;14.22;100.00;97368.63;5015069;28;20223;-71
2022/10/15 01:12:51;;;;;;;0.70;0.60;;;;;;;14.28;100.00;97362.22;5014806;28;20211;-71
2022/10/15 01:15:43;;;;;;;0.80;0.60;;;;;;;14.26;100.00;97367.03;5014982;28;20214;-71
2022/10/15 01:18:18;;;;;;;0.50;0.50;;;;;;;14.25;100.00;97357.38;5006213;28;20230;-71
2022/10/15 01:20:51;;;;;;;1.77;0.50;;;;;;;14.26;100.00;97351.00;5013772;28;20236;-71
2022/10/15 01:23:32;;;;;;;0.63;0.40;;;;;;;14.29;100.00;97350.47;5014540;28;20216;-71
2022/10/15 01:26:29;;;;;;;0.50;0.50;;;;;;;14.34;100.00;97347.03;5014569;28;20562;-71
2022/10/15 01:29:14;;;;;;;2.53;0.50;;;;;;;14.37;100.00;97354.50;5015287;28;20217;-71
2022/10/15 01:31:51;;;;;;;1.50;0.50;;;;;;;14.33;100.00;97353.44;5014705;28;20225;-71
2022/10/15 01:34:40;;;;;;;0.60;0.40;;;;;;;14.35;100.00;97353.97;5015546;28;20201;-71
2022/10/15 01:37:19;;;;;;;1.57;0.50;;;;;;;14.37;100.00;97349.97;5014619;28;20198;-71
2022/10/15 01:39:55;;;;;;;1.53;0.40;;;;;;;14.37;100.00;97344.63;5014586;28;20194;-71
2022/10/15 01:42:32;;;;;;;1.40;0.40;;;;;;;14.36;100.00;97347.56;5013419;28;20196;-71
2022/10/15 01:45:02;;;;;;;2.13;0.50;;;;;;;14.40;100.00;97352.13;5012337;28;20194;-71
2022/10/15 01:47:50;;;;;;;1.83;0.43;;;;;;;14.40;100.00;97354.00;5014259;28;20186;-71
2022/10/15 01:50:20;;;;;;;2.63;0.60;;;;;;;14.36;100.00;97348.38;5012949;28;20560;-71
2022/10/15 01:52:50;;;;;;;2.30;0.50;;;;;;;14.36;100.00;97343.03;5013740;28;20198;-71
2022/10/15 01:55:19;;;;;;;3.17;0.70;;;;;;;14.39;100.00;97336.34;5014047;28;20206;-71
2022/10/15 01:57:48;;;;;;;1.23;0.40;;;;;;;14.42;100.00;97330.50;5014191;28;20233;-72
2022/10/15 02:00:14;;;;;;;0.50;0.50;;;;;;;14.42;100.00;97333.94;5014171;28;20242;-71
2022/10/15 02:02:41;;;;;;;0.50;0.50;;;;;;;14.40;100.00;97335.28;5014265;28;20214;-71
2022/10/15 02:05:17;;;;;;;3.27;0.60;;;;;;;14.38;100.00;97332.84;5014180;28;20213;-71
2022/10/15 02:07:49;;;;;;;0.53;0.43;;;;;;;14.42;100.00;97343.88;5013895;28;20195;-71
2022/10/15 02:10:55;;;;;;;1.03;0.60;;;;;;;14.41;100.00;97342.22;5013779;28;20233;-71
2022/10/15 02:13:52;;;;;;;1.63;0.50;;;;;;;14.40;100.00;97343.28;4991522;28;20211;-71
2022/10/15 02:17:03;;;;;;;3.10;0.40;;;;;;;14.42;100.00;97341.19;5013900;28;20214;-71
2022/10/15 02:19:32;;;;;;;0.50;0.50;;;;;;;14.52;100.00;97346.56;4918199;29;20239;-72
2022/10/15 02:22:06;;;;;;;0.53;0.40;;;;;;;14.48;100.00;97332.91;4918432;29;20213;-71
2022/10/15 02:24:39;;;;;;;1.70;0.33;;;;;;;14.48;100.00;97342.81;4980401;28;20249;-71
2022/10/15 02:27:08;;;;;;;2.43;0.60;;;;;;;14.51;100.00;97343.09;5012609;28;20194;-71
2022/10/15 02:29:36;;;;;;;1.53;0.60;;;;;;;14.50;100.00;97340.66;5013810;28;20206;-71
2022/10/15 02:32:04;;;;;;;0.87;0.50;;;;;;;14.55;100.00;97348.72;5013840;28;20260;-71
2022/10/15 02:34:33;;;;;;;0.53;0.40;;;;;;;14.55;100.00;97344.19;5013546;28;20662;-71
2022/10/15 02:37:03;;;;;;;0.87;0.43;;;;;;;14.56;100.00;97350.34;5013803;28;20206;-71
2022/10/15 02:39:30;;;;;;;1.97;0.50;;;;;;;14.56;100.00;97351.13;5013530;28;20221;-71
2022/10/15 02:41:57;;;;;;;0.37;0.30;;;;;;;14.56;100.00;97347.66;5013459;28;20686;-71
2022/10/15 02:44:23;;;;;;;2.63;0.40;;;;;;;14.58;100.00;97357.03;5013750;28;20218;-71
2022/10/15 02:46:50;;;;;;;2.50;0.50;;;;;;;14.62;100.00;97358.13;5013699;28;20218;-71
2022/10/15 02:49:16;;;;;;;0.50;0.40;;;;;;;14.61;100.00;97353.81;5013402;28;20217;-71
2022/10/15 02:51:43;;;;;;;0.57;0.40;;;;;;;14.66;100.00;97356.53;5013750;28;20230;-71
2022/10/15 02:54:09;;;;;;;1.17;0.40;;;;;;;14.64;100.00;97357.84;5013626;28;20210;-71
2022/10/15 02:56:38;;;;;;;1.83;0.50;;;;;;;14.59;100.00;97350.63;5015893;28;20207;-71
2022/10/15 02:59:04;;;;;;;0.87;0.40;;;;;;;14.68;100.00;97358.94;5017191;28;20228;-71
2022/10/15 03:01:31;;;;;;;1.40;0.40;;;;;;;14.69;100.00;97361.34;5017500;28;20226;-71
2022/10/15 03:03:58;;;;;;;2.63;0.40;;;;;;;14.67;100.00;97368.03;5017455;28;20210;-71
2022/10/15 03:06:24;;;;;;;0.47;0.40;;;;;;;14.67;100.00;97360.81;5017436;28;20214;-71
2022/10/15 03:08:51;;;;;;;2.73;0.50;;;;;;;14.65;100.00;97362.94;5017422;28;20213;-71
2022/10/15 03:11:17;;;;;;;0.50;0.40;;;;;;;14.68;100.00;97372.31;5017201;28;20222;-71
2022/10/15 03:13:43;;;;;;;1.90;0.40;;;;;;;14.67;100.00;97368.03;5017259;28;20290;-71
2022/10/15 03:16:11;;;;;;;0.40;0.33;;;;;;;14.67;100.00;97360.00;5016844;28;20215;-71
2022/10/15 03:18:38;;;;;;;0.40;0.40;;;;;;;14.75;100.00;97364.88;5017115;28;20238;-71
2022/10/15 03:21:05;;;;;;;0.87;0.30;;;;;;;14.81;100.00;97363.81;5016833;28;20392;-71
2022/10/15 03:23:31;;;;;;;0.80;0.43;;;;;;;14.80;100.00;97360.34;5016733;28;20203;-70
2022/10/15 03:25:57;;;;;;;0.47;0.30;;;;;;;14.80;100.00;97357.66;5017128;28;20206;-71
2022/10/15 03:28:24;;;;;;;1.53;0.40;;;;;;;14.78;100.00;97361.66;5016722;28;20230;-70
2022/10/15 03:30:50;;;;;;;0.97;0.40;;;;;;;14.75;100.00;97362.19;5016961;28;20308;-71
2022/10/15 03:33:17;;;;;;;1.33;0.60;;;;;;;14.79;100.00;97366.75;5016927;28;20207;-71
2022/10/15 03:35:43;;;;;;;0.30;0.30;;;;;;;14.80;100.00;97365.69;5016851;28;20203;-71
2022/10/15 03:38:09;;;;;;;1.13;0.40;;;;;;;14.87;100.00;97373.44;5016614;28;20226;-71
2022/10/15 03:40:36;;;;;;;0.73;0.40;;;;;;;14.87;100.00;97378.81;5016256;28;20245;-71
2022/10/15 03:43:02;;;;;;;0.97;0.37;;;;;;;14.80;100.00;97376.41;5016643;28;20233;-70
2022/10/15 03:45:29;;;;;;;0.67;0.30;;;;;;;14.83;100.00;97383.88;5016585;28;20203;-70
2022/10/15 03:47:55;;;;;;;0.40;0.33;;;;;;;14.84;100.00;97384.69;5016258;28;20210;-71
2022/10/15 03:50:21;;;;;;;1.43;0.40;;;;;;;14.89;100.00;97380.19;5016459;28;20226;-71
2022/10/15 03:52:48;;;;;;;0.40;0.40;;;;;;;14.89;100.00;97380.19;5016511;28;20211;-71
2022/10/15 03:55:14;;;;;;;1.50;0.40;;;;;;;14.95;100.00;97389.00;5016552;28;20217;-71
2022/10/15 03:57:41;;;;;;;0.43;0.40;;;;;;;14.91;100.00;97391.41;5016374;28;20207;-71
2022/10/15 04:00:08;;;;;;;0.40;0.40;;;;;;;14.88;100.00;97405.31;5016361;28;20234;-71
2022/10/15 04:02:35;;;;;;;1.20;0.50;;;;;;;14.91;100.00;97399.44;5016061;28;20688;-71
2022/10/15 04:05:01;;;;;;;1.80;0.30;;;;;;;14.90;100.00;97397.84;5016214;28;20206;-71
2022/10/15 04:07:27;;;;;;;0.63;0.33;;;;;;;14.88;100.00;97394.59;5015356;28;20207;-71
2022/10/15 04:09:54;;;;;;;1.23;0.40;;;;;;;14.88;100.00;97399.97;5016129;28;20589;-70
2022/10/15 04:12:20;;;;;;;4.13;0.50;;;;;;;14.87;100.00;97395.69;5015836;28;20568;-71
2022/10/15 04:14:47;;;;;;;0.40;0.40;;;;;;;14.87;100.00;97397.53;5015953;28;20221;-71
2022/10/15 04:17:13;;;;;;;0.50;0.50;;;;;;;14.90;100.00;97400.53;5015995;28;20195;-71
2022/10/15 04:19:39;;;;;;;0.73;0.40;;;;;;;14.94;100.00;97406.97;5015627;28;20234;-71
2022/10/15 04:22:06;;;;;;;0.53;0.40;;;;;;;14.91;100.00;97410.16;5015959;28;20215;-71
2022/10/15 04:24:32;;;;;;;2.17;0.43;;;;;;;14.90;100.00;97405.88;5015873;28;20217;-71
2022/10/15 04:26:58;;;;;;;0.40;0.40;;;;;;;14.93;100.00;97412.56;5015642;28;20213;-71
2022/10/15 04:29:25;;;;;;;1.50;0.40;;;;;;;14.89;100.00;97414.97;5015791;28;20574;-71
2022/10/15 04:31:51;;;;;;;1.30;0.30;;;;;;;14.91;100.00;97414.69;5015740;28;20223;-71
2022/10/15 04:34:18;;;;;;;0.77;0.50;;;;;;;14.89;100.00;97414.16;5015726;28;20207;-71
2022/10/15 04:36:44;;;;;;;0.30;0.30;;;;;;;14.92;100.00;97419.78;5015728;28;20212;-71
2022/10/15 04:39:10;;;;;;;0.53;0.30;;;;;;;14.87;100.00;97417.09;5015486;28;20226;-71
2022/10/15 04:41:37;;;;;;;2.17;0.30;;;;;;;14.85;100.00;97416.56;5014920;28;20647;-71
2022/10/15 04:44:03;;;;;;;1.10;0.40;;;;;;;14.87;100.00;97421.63;5015420;28;20206;-71
2022/10/15 04:46:30;;;;;;;1.37;0.47;;;;;;;14.83;100.00;97418.69;5015493;28;20226;-71
2022/10/15 04:48:57;;;;;;;1.00;0.50;;;;;;;14.82;100.00;97418.94;5015403;28;20209;-71
2022/10/15 04:51:26;;;;;;;0.40;0.40;;;;;;;14.82;100.00;97419.75;5015243;28;20230;-71
2022/10/15 04:53:52;;;;;;;1.23;0.40;;;;;;;14.80;100.00;97421.06;5015479;28;20214;-71
2022/10/15 04:56:21;;;;;;;1.00;0.40;;;;;;;14.79;100.00;97422.94;5015312;28;20203;-71
2022/10/15 04:58:49;;;;;;;1.57;0.47;;;;;;;14.81;100.00;97438.72;5015305;28;20222;-71
2022/10/15 05:01:19;;;;;;;1.60;0.50;;;;;;;14.75;100.00;97440.56;5015226;28;20231;-71
2022/10/15 05:03:47;;;;;;;3.30;0.60;;;;;;;14.73;100.00;97437.38;5014997;28;20213;-71
2022/10/15 05:06:17;;;;;;;0.60;0.40;;;;;;;14.72;100.00;97435.75;5015140;28;20209;-71
2022/10/15 05:08:44;;;;;;;1.23;0.40;;;;;;;14.70;100.00;97429.84;5014801;28;20209;-71
2022/10/15 05:11:17;;;;;;;3.07;0.50;;;;;;;14.69;100.00;97430.91;5014546;28;20226;-71
2022/10/15 05:13:44;;;;;;;1.73;0.40;;;;;;;14.72;100.00;97443.78;5014810;28;20206;-71
2022/10/15 05:16:27;;;;;;;3.00;0.40;;;;;;;14.69;100.00;97435.44;5014606;28;20218;-71
2022/10/15 05:18:59;;;;;;;1.07;0.40;;;;;;;14.67;100.00;97443.75;5014523;28;20231;-71
2022/10/15 05:21:26;;;;;;;0.40;0.40;;;;;;;14.67;100.00;97453.66;5014538;28;20226;-71
2022/10/15 05:23:53;;;;;;;0.73;0.50;;;;;;;14.69;100.00;97455.00;5014854;28;20209;-71
2022/10/15 05:26:23;;;;;;;1.30;0.50;;;;;;;14.68;100.00;97464.09;5014546;28;20221;-71
2022/10/15 05:28:50;;;;;;;0.43;0.37;;;;;;;14.66;100.00;97468.88;5014397;28;20203;-71
2022/10/15 05:31:21;;;;;;;2.13;0.40;;;;;;;14.67;100.00;97467.84;5014429;28;20624;-71
2022/10/15 05:33:48;;;;;;;1.50;0.30;;;;;;;14.69;100.00;97464.88;5014667;28;20199;-71
2022/10/15 05:36:29;;;;;;;0.50;0.50;;;;;;;14.66;100.00;97468.09;5014699;28;20207;-71
2022/10/15 05:39:00;;;;;;;1.37;0.40;;;;;;;14.68;100.00;97479.31;5014452;28;20217;-71
2022/10/15 05:41:28;;;;;;;0.43;0.40;;;;;;;14.71;100.00;97479.63;5014512;28;20238;-71
2022/10/15 05:43:56;;;;;;;0.40;0.40;;;;;;;14.69;100.00;97486.28;5014107;28;20571;-71
2022/10/15 05:46:23;;;;;;;0.67;0.50;;;;;;;14.69;100.00;97489.78;5014246;28;20203;-71
2022/10/15 05:48:50;;;;;;;3.40;0.50;;;;;;;14.69;100.00;97478.25;5014396;28;20205;-71
2022/10/15 05:51:17;;;;;;;1.30;0.50;;;;;;;14.67;100.00;97481.22;5014262;28;20234;-70
2022/10/15 05:53:45;;;;;;;0.73;0.40;;;;;;;14.69;100.00;97473.72;5014360;28;20221;-70
2022/10/15 05:56:12;;;;;;;4.10;0.60;;;;;;;14.67;100.00;97475.88;5014305;28;20203;-71
2022/10/15 05:58:38;;;;;;;1.90;0.50;;;;;;;14.67;100.00;97477.72;5014245;28;20253;-70
2022/10/15 06:01:07;;;;;;;0.57;0.53;;;;;;;14.65;100.00;97487.91;5014114;28;20226;-71
2022/10/15 06:03:34;;;;;;;1.57;0.70;;;;;;;14.68;100.00;97496.19;5014046;28;20206;-71
2022/10/15 06:06:01;;;;;;;0.63;0.50;;;;;;;14.68;100.00;97501.56;5013990;28;20214;-71
2022/10/15 06:08:29;;;;;;;1.17;0.40;;;;;;;14.67;100.00;97497.28;5013925;28;20210;-70
2022/10/15 06:10:57;;;;;;;0.57;0.50;;;;;;;14.66;100.00;97497.53;5013941;28;20229;-71
2022/10/15 06:13:24;;;;;;;1.20;0.50;;;;;;;14.71;100.00;97510.94;5013678;28;20548;-71
2022/10/15 06:15:50;;;;;;;0.97;0.57;;;;;;;14.71;100.00;97508.25;5013316;28;20214;-71
2022/10/15 06:18:16;;;;;;;1.10;0.60;;;;;;;14.72;100.00;97515.22;5013865;28;20211;-71
2022/10/15 06:20:43;;;;;;;0.60;0.57;;;;;;;14.72;100.00;97512.53;5013663;28;20222;-71
2022/10/15 06:23:11;;;;;;;1.23;0.53;;;;;;;14.73;100.00;97512.28;5013925;28;20206;-70
2022/10/15 06:25:38;;;;;;;2.60;0.60;;;;;;;14.73;100.00;97522.97;5013754;28;20246;-71
2022/10/15 06:28:06;;;;;;;1.70;0.63;;;;;;;14.72;100.00;97521.38;5013638;28;20312;-71
2022/10/15 06:30:33;;;;;;;1.97;0.53;;;;;;;14.71;100.00;97524.31;5013196;28;20223;-70
2022/10/15 06:32:59;;;;;;;0.93;0.40;;;;;;;14.73;100.00;97528.34;5013547;28;20214;-70
2022/10/15 06:35:29;;;;;;;0.63;0.50;;;;;;;14.73;100.00;97536.38;5013543;28;20207;-70
2022/10/15 06:37:55;;;;;;;0.93;0.53;;;;;;;14.76;100.00;97549.25;5013348;28;20698;-71
2022/10/15 06:40:22;;;;;;;1.07;0.70;;;;;;;14.75;100.00;97554.84;5013885;28;20230;-70
2022/10/15 06:42:48;;;;;;;0.50;0.50;;;;;;;14.74;100.00;97567.41;5013325;28;20210;-71
2022/10/15 06:45:14;;;;;;;1.50;0.60;;;;;;;14.76;100.00;97562.63;5014111;28;20213;-70
2022/10/15 06:47:41;;;;;;;3.07;0.60;;;;;;;14.76;100.00;97564.47;5013606;28;20546;-70
2022/10/15 06:50:08;;;;;;;2.33;0.50;;;;;;;14.77;100.00;97561.53;5013552;28;20281;-71
2022/10/15 06:52:34;;;;;;;0.50;0.50;;;;;;;14.77;100.00;97564.22;5013694;28;20281;-71
2022/10/15 06:55:01;;;;;;;0.77;0.60;;;;;;;14.78;100.00;97568.50;5013673;28;20206;-70
2022/10/15 06:57:28;;;;;;;3.13;0.70;;;;;;;14.75;100.00;97579.72;5013514;28;20207;-71
2022/10/15 06:59:54;;;;;;;0.87;0.60;;;;;;;14.75;100.00;97579.72;5012972;28;20698;-70
2022/10/15 07:02:21;;;;;;;1.20;0.60;;;;;;;14.75;100.00;97582.38;5013357;28;20206;-71
2022/10/15 07:04:48;;;;;;;0.50;0.50;;;;;;;14.77;100.00;97582.13;5013121;28;20217;-71
2022/10/15 07:07:15;;;;;;;1.57;0.60;;;;;;;14.76;100.00;97584.03;5013262;28;20225;-71
2022/10/15 07:09:41;;;;;;;0.67;0.60;;;;;;;14.75;100.00;97587.75;5013293;28;20229;-70
2022/10/15 07:12:08;;;;;;;2.33;0.57;;;;;;;14.73;100.00;97595.22;5013289;28;20213;-71
2022/10/15 07:14:34;;;;;;;1.07;0.70;;;;;;;14.72;100.00;97603.50;5012913;28;20673;-70
2022/10/15 07:17:00;;;;;;;3.27;0.70;;;;;;;14.70;100.00;97608.31;5013389;28;20282;-71
2022/10/15 07:19:27;;;;;;;2.03;0.60;;;;;;;14.70;100.00;97611.78;5013311;28;20241;-70
2022/10/15 07:21:54;;;;;;;0.60;0.60;;;;;;;14.70;100.00;97613.66;5012979;28;20694;-71
2022/10/15 07:24:20;;;;;;;0.80;0.60;;;;;;;14.72;100.00;97612.34;5012884;28;20674;-71
2022/10/15 07:26:47;;;;;;;1.27;0.80;;;;;;;14.77;100.00;97616.91;5012951;28;20207;-70
2022/10/15 07:29:13;;;;;;;0.93;0.63;;;;;;;14.78;100.00;97611.31;5013147;28;20206;-71
2022/10/15 07:31:40;;;;;;;1.23;0.60;;;;;;;14.81;100.00;97620.72;5012694;28;20231;-71
2022/10/15 07:34:06;;;;;;;0.87;0.80;;;;;;;14.88;100.00;97610.59;5012685;28;20207;-70
2022/10/15 07:36:32;;;;;;;1.53;0.70;;;;;;;14.92;100.00;97623.19;5012734;28;20687;-70
2022/10/15 07:38:59;;;;;;;0.70;0.70;;;;;;;14.97;100.00;97625.91;5012694;28;20716;-71
2022/10/15 07:41:25;;;;;;;4.20;1.03;;;;;;;15.05;100.00;97628.13;5012834;28;20231;-70
2022/10/15 07:43:52;;;;;;;4.13;0.90;;;;;;;15.10;100.00;97627.34;5015349;28;20221;-70
2022/10/15 07:46:19;;;;;;;1.60;0.80;;;;;;;15.13;100.00;97634.84;5016367;28;20214;-70
2022/10/15 07:48:45;;;;;;;1.53;0.63;;;;;;;15.13;100.00;97635.69;5016522;28;20213;-70
2022/10/15 07:51:11;;;;;;;2.67;0.80;;;;;;;15.19;100.00;97642.66;5016308;28;20223;-71
2022/10/15 07:53:38;;;;;;;1.93;0.80;;;;;;;15.19;100.00;97633.84;5016341;28;20214;-70
2022/10/15 07:56:07;;;;;;;1.60;0.60;;;;;;;15.14;100.00;97636.47;5016151;28;20203;-71
2022/10/15 07:58:36;;;;;;;2.83;1.00;;;;;;;15.15;100.00;97643.47;5015966;28;20740;-71
2022/10/15 08:01:06;;;;;;;2.57;0.90;;;;;;;15.17;100.00;97647.50;5016056;28;20253;-71
2022/10/15 08:03:33;;;;;;;1.33;0.80;;;;;;;15.15;100.00;97649.59;5016614;28;20574;-70
2022/10/15 08:06:01;;;;;;;1.17;1.07;;;;;;;15.14;100.00;97645.31;5015824;28;20215;-71
2022/10/15 08:08:28;;;;;;;3.13;0.80;;;;;;;15.15;100.00;97649.59;5016308;28;20213;-71
2022/10/15 08:10:54;;;;;;;2.30;0.83;;;;;;;15.12;100.00;97647.47;5016127;28;20223;-71
2022/10/15 08:13:21;;;;;;;4.30;0.90;;;;;;;15.09;100.00;97656.00;5015751;28;20238;-71
2022/10/15 08:15:48;;;;;;;2.97;0.90;;;;;;;15.09;100.00;97656.00;5015562;28;20218;-71
2022/10/15 08:18:14;;;;;;;4.43;1.10;;;;;;;15.10;100.00;97654.91;5016069;28;20203;-71
2022/10/15 08:20:41;;;;;;;3.13;0.90;;;;;;;15.10;100.00;97646.09;5015407;28;20234;-71
2022/10/15 08:23:14;;;;;;;2.80;1.20;;;;;;;15.16;100.00;97647.75;5015646;28;20697;-71
2022/10/15 08:25:41;;;;;;;1.87;1.10;;;;;;;15.22;100.00;97650.19;5015659;28;20635;-71
2022/10/15 08:28:09;;;;;;;1.40;1.00;;;;;;;15.29;100.00;97644.63;5015871;28;20337;-71
2022/10/15 08:30:36;;;;;;;3.97;1.10;;;;;;;15.33;100.00;97651.84;5015371;28;20232;-71
2022/10/15 08:33:03;;;;;;;3.30;1.10;;;;;;;15.37;100.00;97646.84;5015756;28;20214;-71
2022/10/15 08:35:34;;;;;;;1.47;1.37;;;;;;;15.36;100.00;97651.38;5015489;28;20210;-71
2022/10/15 08:38:01;;;;;;;2.30;0.80;;;;;;;15.45;100.00;97639.13;5015681;28;20242;-71
2022/10/15 08:40:28;;;;;;;1.17;0.90;;;;;;;15.50;100.00;97638.31;5015423;28;20578;-71
2022/10/15 08:42:55;;;;;;;4.20;1.10;;;;;;;15.46;100.00;97642.59;5015398;28;20210;-71
2022/10/15 08:45:29;;;;;;;1.90;0.87;;;;;;;15.52;100.00;97650.41;5013871;28;20214;-71
2022/10/15 08:48:04;;;;;;;1.23;0.87;;;;;;;15.45;100.00;97660.56;5015458;28;20186;-71
2022/10/15 08:50:59;;;;;;;1.73;0.90;;;;;;;15.52;100.00;97655.75;5014136;28;20222;-71
2022/10/15 08:53:28;;;;;;;3.07;0.90;;;;;;;15.45;100.00;97665.91;5013381;28;20207;-71
2022/10/15 08:56:03;;;;;;;2.50;1.20;;;;;;;15.42;100.00;97663.75;5015231;28;20210;-71
2022/10/15 08:59:01;;;;;;;4.93;1.13;;;;;;;15.43;100.00;97667.22;5014142;28;20202;-71
2022/10/15 09:01:40;;;;;;;1.87;1.03;;;;;;;15.45;100.00;97660.56;5014813;28;20736;-71
2022/10/15 09:04:24;;;;;;;1.17;1.00;;;;;;;15.45;100.00;97665.91;5014932;28;20191;-71
2022/10/15 09:07:02;;;;;;;2.33;1.17;;;;;;;15.47;100.00;97658.41;5015245;28;20186;-71
2022/10/15 09:09:57;;;;;;;3.43;0.97;;;;;;;15.45;100.00;97657.88;5013854;28;20266;-71
2022/10/15 09:12:48;;;;;;;1.17;1.00;;;;;;;15.48;100.00;97661.91;5007491;28;20211;-71
2022/10/15 09:15:18;;;;;;;1.93;1.10;;;;;;;15.48;100.00;97662.72;5014975;28;20662;-71
2022/10/15 09:17:48;;;;;;;1.60;1.03;;;;;;;15.47;100.00;97658.41;5014876;28;20214;-71
2022/10/15 09:20:31;;;;;;;1.13;0.80;;;;;;;15.52;100.00;97655.75;5014608;28;20539;-71
2022/10/15 09:22:58;;;;;;;1.97;0.80;;;;;;;15.54;100.00;97658.19;5015157;28;20213;-71
2022/10/15 09:25:31;;;;;;;1.10;0.80;;;;;;;15.57;100.00;97663.03;5014607;28;20211;-71
2022/10/15 09:28:02;;;;;;;1.07;0.90;;;;;;;15.62;100.00;97669.22;5014561;28;20199;-70
2022/10/15 09:30:40;;;;;;;1.03;0.80;;;;;;;15.64;100.00;97672.44;5014578;28;20226;-71
2022/10/15 09:33:22;;;;;;;2.40;1.17;;;;;;;15.68;100.00;97675.41;5014595;28;20302;-71
2022/10/15 09:36:10;;;;;;;0.90;0.80;;;;;;;15.72;100.00;97674.63;5013440;28;20195;-70
2022/10/15 09:38:49;;;;;;;2.20;0.90;;;;;;;15.80;100.00;97676.81;5013338;28;20197;-70
2022/10/15 09:41:29;;;;;;;0.87;0.70;;;;;;;15.82;100.00;97682.72;5014319;28;20234;-70
2022/10/15 09:44:00;;;;;;;0.80;0.80;;;;;;;15.93;100.00;97687.03;5014435;28;20187;-71
2022/10/15 09:46:26;;;;;;;2.43;0.60;;;;;;;16.01;100.00;97688.44;5014427;28;20191;-71
2022/10/15 09:49:07;;;;;;;1.70;0.60;;;;;;;16.09;100.00;97683.38;5013985;28;20312;-70
2022/10/15 09:51:40;;;;;;;1.43;0.50;;;;;;;16.18;100.00;97681.78;5014293;28;20300;-71
2022/10/15 09:54:13;;;;;;;0.80;0.70;;;;;;;16.33;100.00;97678.38;5014266;28;20539;-70
2022/10/15 09:56:46;;;;;;;0.67;0.53;;;;;;;16.40;100.00;97679.75;5012702;28;20666;-71
2022/10/15 09:59:17;;;;;;;2.80;0.63;;;;;;;16.52;100.00;97682.19;5013817;28;20194;-71
2022/10/15 10:01:57;;;;;;;1.73;0.60;;;;;;;16.66;100.00;97684.09;5013643;28;20227;-70
2022/10/15 10:04:27;;;;;;;1.60;0.60;;;;;;;16.85;100.00;97692.44;5014072;28;20201;-71
2022/10/15 10:06:56;;;;;;;0.90;0.70;;;;;;;16.97;100.00;97690.31;5013418;28;20256;-71
2022/10/15 10:09:30;;;;;;;0.70;0.70;;;;;;;16.96;100.00;97691.38;5013778;28;20206;-71
2022/10/15 10:12:00;;;;;;;1.77;0.67;;;;;;;17.11;100.00;97700.25;5013993;28;20206;-71
2022/10/15 10:14:33;;;;;;;2.33;0.73;;;;;;;17.04;100.00;97696.19;5013707;28;20191;-71
2022/10/15 10:17:05;;;;;;;1.90;0.50;;;;;;;17.08;100.00;97692.72;5013915;28;20561;-71
2022/10/15 10:19:32;;;;;;;2.17;0.60;;;;;;;17.15;100.00;97700.50;5013345;28;20218;-71
2022/10/15 10:22:18;;;;;;;0.73;0.60;;;;;;;17.19;100.00;97704.28;5013271;28;20559;-71
2022/10/15 10:24:46;;;;;;;1.83;0.40;;;;;;;17.33;100.00;97706.13;5013225;28;20210;-71
2022/10/15 10:27:22;;;;;;;1.27;0.60;;;;;;;17.35;100.00;97711.25;5013441;28;20218;-71
2022/10/15 10:30:01;;;;;;;1.23;0.60;;;;;;;17.35;100.00;97703.19;5013614;28;20227;-71
2022/10/15 10:32:31;;;;;;;1.43;0.50;;;;;;;17.35;100.00;97704.00;5012542;28;20229;-71
2022/10/15 10:35:03;;;;;;;0.70;0.60;;;;;;;17.53;100.00;97700.78;5013745;28;20236;-71
2022/10/15 10:37:42;;;;;;;0.40;0.40;;;;;;;17.61;100.00;97702.09;5014176;28;20286;-71
2022/10/15 10:40:28;;;;;;;0.80;0.50;;;;;;;17.45;100.00;97706.69;5013314;28;20234;-71
2022/10/15 10:43:16;;;;;;;0.83;0.60;;;;;;;17.44;100.00;97706.97;5013700;28;20201;-71
2022/10/15 10:45:54;;;;;;;1.07;0.60;;;;;;;17.52;100.00;97709.94;5013255;28;20214;-71
2022/10/15 10:48:24;;;;;;;2.43;0.70;;;;;;;17.53;100.00;97711.53;5013125;28;20206;-71
2022/10/15 10:51:25;;;;;;;1.77;0.50;;;;;;;17.58;100.00;97724.97;5012952;28;20226;-71
2022/10/15 10:54:04;;;;;;;1.43;0.53;;;;;;;17.64;100.00;97712.31;4970961;28;20210;-71
2022/10/15 10:56:35;;;;;;;1.70;0.60;;;;;;;17.65;100.00;97713.94;5013240;28;20213;-71
2022/10/15 10:59:25;;;;;;;1.13;0.50;;;;;;;17.51;100.00;97713.66;5013543;28;20242;-71
2022/10/15 11:01:52;;;;;;;1.73;0.60;;;;;;;17.44;100.00;97713.16;5013052;28;20235;-71
2022/10/15 11:04:26;;;;;;;1.47;0.73;;;;;;;17.48;100.00;97721.47;5013155;28;20202;-71
2022/10/15 11:07:04;;;;;;;0.93;0.60;;;;;;;17.45;100.00;97714.75;5012954;28;20229;-71
2022/10/15 11:09:41;;;;;;;2.23;0.63;;;;;;;17.48;100.00;97718.78;5013357;28;20339;-71
2022/10/15 11:12:40;;;;;;;1.23;0.80;;;;;;;17.50;100.00;97725.50;5012900;28;20639;-71
2022/10/15 11:15:12;;;;;;;1.53;0.70;;;;;;;17.51;100.00;97707.50;5012072;28;20592;-71
2022/10/15 11:18:03;;;;;;;1.20;0.60;;;;;;;17.61;100.00;97719.06;5015135;28;20665;-71
2022/10/15 11:20:46;;;;;;;0.80;0.80;;;;;;;17.78;100.00;97698.03;5016520;28;20226;-71
2022/10/15 11:23:45;;;;;;;1.73;0.70;;;;;;;18.10;100.00;97695.75;5015515;28;20199;-71
2022/10/15 11:26:37;;;;;;;0.87;0.70;;;;;;;18.13;100.00;97699.78;5017131;28;20198;-71
2022/10/15 11:29:16;;;;;;;1.77;0.90;;;;;;;18.05;100.00;97692.31;5016739;28;20187;-72
2022/10/15 11:31:58;;;;;;;1.87;0.67;;;;;;;18.15;100.00;97706.50;5015206;28;20227;-72
2022/10/15 11:34:44;;;;;;;1.07;0.87;;;;;;;18.15;100.00;97703.81;5016515;28;20191;-71
2022/10/15 11:37:38;;;;;;;1.47;0.80;;;;;;;18.19;100.00;97701.38;4999925;28;20191;-71
2022/10/15 11:40:38;;;;;;;2.53;0.80;;;;;;;18.11;100.00;97701.97;5016180;28;20257;-72
2022/10/15 11:43:36;;;;;;;3.60;1.00;;;;;;;18.15;100.00;97703.81;5015200;28;20187;-72